This is the latest recevied weather packets stored in our database for station/object 9M4GEK-3. If no packets are shown the sender has not sent any weather packets the latest 10 day(s).
| Time | Temp. | Humidity | Pressure | Rain* | Wind** | Luminosity | Snow |
|---|---|---|---|---|---|---|---|
| 1777727999 | 27.78° C | 73% | 1007.7 hPa | - | - | - | - |
| 1777727269 | 27.78° C | 73% | 1007.5 hPa | - | - | - | - |
| 1777725488 | 27.78° C | 73% | 1007.2 hPa | - | - | - | - |
| 1777725299 | 27.78° C | 73% | 1007.2 hPa | - | - | - | - |
| 1777724399 | 27.78° C | 72% | 1006.8 hPa | - | - | - | - |
| 1777721790 | 27.78° C | 71% | 1006 hPa | - | - | - | - |
| 1777721698 | 27.78° C | 71% | 1006 hPa | - | - | - | - |
| 1777720798 | 27.78° C | 72% | 1005.6 hPa | - | - | - | - |
| 1777719935 | 28.33° C | 71% | 1005.5 hPa | - | - | - | - |
| 1777719898 | 28.33° C | 71% | 1005.5 hPa | - | - | - | - |
| 1777719092 | 28.89° C | 70% | 1005.4 hPa | - | - | - | - |
| 1777718997 | 28.89° C | 70% | 1005.4 hPa | - | - | - | - |
| 1777718097 | 29.44° C | 68% | 1005.3 hPa | - | - | - | - |
| 1777717277 | 30° C | 67% | 1005 hPa | - | - | - | - |
| 1777717197 | 30° C | 67% | 1005 hPa | - | - | - | - |
| 1777716296 | 30.56° C | 66% | 1004.9 hPa | - | - | - | - |
| 1777715429 | 30° C | 67% | 1004.8 hPa | - | - | - | - |
| 1777715396 | 30° C | 67% | 1004.8 hPa | - | - | - | - |
| 1777714583 | 30° C | 67% | 1004.8 hPa | - | - | - | - |
| 1777714496 | 30° C | 67% | 1004.8 hPa | - | - | - | - |
| 1777713596 | 30° C | 67% | 1004.8 hPa | - | - | - | - |
| 1777712692 | 29.44° C | 70% | 1004.5 hPa | - | - | - | - |
| 1777711824 | 28.33° C | 74% | 1004.7 hPa | - | - | - | - |
| 1777711793 | 28.33° C | 74% | 1004.7 hPa | - | - | - | - |
| 1777710937 | 26.67° C | 78% | 1004.9 hPa | - | - | - | - |
* Rain since midnight (hover to see other rain measurements)
** Current wind speed in m/s (hover to see current wind gust speed)